sensor_id;sensor_type;location;lat;lon;timestamp;temperature;humidity
73586;DHT22;61865;50.232;18.614;2023-03-19T00:00:27;0.20;99.90
73586;DHT22;61865;50.232;18.614;2023-03-19T00:02:49;0.20;99.90
73586;DHT22;61865;50.232;18.614;2023-03-19T00:05:11;0.20;99.90
73586;DHT22;61865;50.232;18.614;2023-03-19T00:07:33;0.20;99.90
73586;DHT22;61865;50.232;18.614;2023-03-19T00:09:57;0.00;99.90
73586;DHT22;61865;50.232;18.614;2023-03-19T00:12:19;0.00;99.90
73586;DHT22;61865;50.232;18.614;2023-03-19T00:14:41;0.10;99.90
73586;DHT22;61865;50.232;18.614;2023-03-19T00:17:05;0.10;99.90
73586;DHT22;61865;50.232;18.614;2023-03-19T00:19:27;0.10;99.90
73586;DHT22;61865;50.232;18.614;2023-03-19T00:21:49;0.10;99.90
73586;DHT22;61865;50.232;18.614;2023-03-19T00:24:12;0.10;99.90
73586;DHT22;61865;50.232;18.614;2023-03-19T00:26:34;0.20;99.90
73586;DHT22;61865;50.232;18.614;2023-03-19T00:28:57;0.20;99.90
73586;DHT22;61865;50.232;18.614;2023-03-19T00:31:19;0.20;99.90
73586;DHT22;61865;50.232;18.614;2023-03-19T00:33:43;0.20;99.90
73586;DHT22;61865;50.232;18.614;2023-03-19T00:36:05;0.30;99.90
73586;DHT22;61865;50.232;18.614;2023-03-19T00:38:28;0.30;99.90
73586;DHT22;61865;50.232;18.614;2023-03-19T00:40:49;0.20;99.90
73586;DHT22;61865;50.232;18.614;2023-03-19T00:43:11;0.00;99.90
73586;DHT22;61865;50.232;18.614;2023-03-19T00:45:33;-0.30;99.90
73586;DHT22;61865;50.232;18.614;2023-03-19T00:47:55;-0.40;99.90
73586;DHT22;61865;50.232;18.614;2023-03-19T00:50:19;-0.60;99.90
73586;DHT22;61865;50.232;18.614;2023-03-19T00:52:41;-0.70;99.90
73586;DHT22;61865;50.232;18.614;2023-03-19T00:55:03;-0.60;99.90
73586;DHT22;61865;50.232;18.614;2023-03-19T00:57:26;-0.70;99.90
73586;DHT22;61865;50.232;18.614;2023-03-19T00:59:48;-0.70;99.90
73586;DHT22;61865;50.232;18.614;2023-03-19T01:02:10;-0.50;99.90
73586;DHT22;61865;50.232;18.614;2023-03-19T01:04:32;-0.30;99.90
73586;DHT22;61865;50.232;18.614;2023-03-19T01:06:55;-0.10;99.90
73586;DHT22;61865;50.232;18.614;2023-03-19T01:09:17;-0.20;99.90
73586;DHT22;61865;50.232;18.614;2023-03-19T01:11:40;-0.20;99.90
73586;DHT22;61865;50.232;18.614;2023-03-19T01:14:02;-0.20;99.90
73586;DHT22;61865;50.232;18.614;2023-03-19T01:16:24;-0.30;99.90
73586;DHT22;61865;50.232;18.614;2023-03-19T01:18:46;-0.40;99.90
73586;DHT22;61865;50.232;18.614;2023-03-19T01:21:08;-0.50;99.90
73586;DHT22;61865;50.232;18.614;2023-03-19T01:23:31;-0.60;99.90
73586;DHT22;61865;50.232;18.614;2023-03-19T01:25:53;-0.70;99.90
73586;DHT22;61865;50.232;18.614;2023-03-19T01:28:16;-0.90;99.90
73586;DHT22;61865;50.232;18.614;2023-03-19T01:30:39;-1.00;99.90
73586;DHT22;61865;50.232;18.614;2023-03-19T01:33:01;-0.90;99.90
73586;DHT22;61865;50.232;18.614;2023-03-19T01:35:23;-0.80;99.90
73586;DHT22;61865;50.232;18.614;2023-03-19T01:37:45;-0.70;99.90
73586;DHT22;61865;50.232;18.614;2023-03-19T01:40:10;-0.70;99.90
73586;DHT22;61865;50.232;18.614;2023-03-19T01:42:33;-0.80;99.90
73586;DHT22;61865;50.232;18.614;2023-03-19T01:44:55;-0.90;99.90
73586;DHT22;61865;50.232;18.614;2023-03-19T01:47:28;-0.90;99.90
73586;DHT22;61865;50.232;18.614;2023-03-19T01:49:53;-0.90;99.90
73586;DHT22;61865;50.232;18.614;2023-03-19T01:52:15;-0.80;99.90
73586;DHT22;61865;50.232;18.614;2023-03-19T01:54:38;-0.80;99.90
73586;DHT22;61865;50.232;18.614;2023-03-19T01:57:06;-0.80;99.90
73586;DHT22;61865;50.232;18.614;2023-03-19T01:59:30;-1.00;99.90
73586;DHT22;61865;50.232;18.614;2023-03-19T02:01:56;-1.20;99.90
73586;DHT22;61865;50.232;18.614;2023-03-19T02:04:18;-1.40;99.90
73586;DHT22;61865;50.232;18.614;2023-03-19T02:06:41;-1.50;99.90
73586;DHT22;61865;50.232;18.614;2023-03-19T02:09:04;-1.30;99.90
73586;DHT22;61865;50.232;18.614;2023-03-19T02:11:27;-1.10;99.90
73586;DHT22;61865;50.232;18.614;2023-03-19T02:13:50;-0.70;99.90
73586;DHT22;61865;50.232;18.614;2023-03-19T02:16:12;-0.60;99.90
73586;DHT22;61865;50.232;18.614;2023-03-19T02:18:35;-0.60;99.90
73586;DHT22;61865;50.232;18.614;2023-03-19T02:21:02;-0.60;99.90
73586;DHT22;61865;50.232;18.614;2023-03-19T02:23:32;-0.90;99.90
73586;DHT22;61865;50.232;18.614;2023-03-19T02:26:05;-1.10;99.90
73586;DHT22;61865;50.232;18.614;2023-03-19T02:28:29;-1.30;99.90
73586;DHT22;61865;50.232;18.614;2023-03-19T02:30:52;-1.40;99.90
73586;DHT22;61865;50.232;18.614;2023-03-19T02:33:16;-1.40;99.90
73586;DHT22;61865;50.232;18.614;2023-03-19T02:35:38;-1.60;99.90
73586;DHT22;61865;50.232;18.614;2023-03-19T02:38:02;-1.70;99.90
73586;DHT22;61865;50.232;18.614;2023-03-19T02:40:29;-1.90;99.90
73586;DHT22;61865;50.232;18.614;2023-03-19T02:42:52;-2.00;99.90
73586;DHT22;61865;50.232;18.614;2023-03-19T02:45:14;-2.10;99.90
73586;DHT22;61865;50.232;18.614;2023-03-19T02:47:37;-2.20;99.90
73586;DHT22;61865;50.232;18.614;2023-03-19T02:49:59;-2.30;99.90
73586;DHT22;61865;50.232;18.614;2023-03-19T02:52:21;-2.40;99.90
73586;DHT22;61865;50.232;18.614;2023-03-19T02:54:43;-2.50;99.90
73586;DHT22;61865;50.232;18.614;2023-03-19T02:57:06;-2.60;99.90
73586;DHT22;61865;50.232;18.614;2023-03-19T02:59:29;-2.50;99.90
73586;DHT22;61865;50.232;18.614;2023-03-19T03:01:51;-2.30;99.90
73586;DHT22;61865;50.232;18.614;2023-03-19T03:04:13;-2.10;99.90
73586;DHT22;61865;50.232;18.614;2023-03-19T03:06:36;-2.00;99.90
73586;DHT22;61865;50.232;18.614;2023-03-19T03:08:58;-2.00;99.90
73586;DHT22;61865;50.232;18.614;2023-03-19T03:11:20;-2.00;99.90
73586;DHT22;61865;50.232;18.614;2023-03-19T03:13:42;-2.00;99.90
73586;DHT22;61865;50.232;18.614;2023-03-19T03:16:06;-2.10;99.90
73586;DHT22;61865;50.232;18.614;2023-03-19T03:18:28;-2.10;99.90
73586;DHT22;61865;50.232;18.614;2023-03-19T03:20:49;-2.20;99.90
73586;DHT22;61865;50.232;18.614;2023-03-19T03:23:11;-2.20;99.90
73586;DHT22;61865;50.232;18.614;2023-03-19T03:25:34;-1.90;99.90
73586;DHT22;61865;50.232;18.614;2023-03-19T03:27:56;-1.80;99.90
73586;DHT22;61865;50.232;18.614;2023-03-19T03:30:18;-1.70;99.90
73586;DHT22;61865;50.232;18.614;2023-03-19T03:32:42;-1.60;99.90
73586;DHT22;61865;50.232;18.614;2023-03-19T03:35:05;-1.60;99.90
73586;DHT22;61865;50.232;18.614;2023-03-19T03:37:27;-1.50;99.90
73586;DHT22;61865;50.232;18.614;2023-03-19T03:39:49;-1.50;99.90
73586;DHT22;61865;50.232;18.614;2023-03-19T03:42:12;-1.70;99.90
73586;DHT22;61865;50.232;18.614;2023-03-19T03:44:34;-1.80;99.90
73586;DHT22;61865;50.232;18.614;2023-03-19T03:46:56;-1.90;99.90
73586;DHT22;61865;50.232;18.614;2023-03-19T03:49:20;-1.90;99.90
73586;DHT22;61865;50.232;18.614;2023-03-19T03:51:42;-2.00;99.90
73586;DHT22;61865;50.232;18.614;2023-03-19T03:54:03;-2.20;99.90
73586;DHT22;61865;50.232;18.614;2023-03-19T03:56:25;-2.40;99.90
73586;DHT22;61865;50.232;18.614;2023-03-19T03:58:47;-2.60;99.90
73586;DHT22;61865;50.232;18.614;2023-03-19T04:01:13;-2.60;99.90
73586;DHT22;61865;50.232;18.614;2023-03-19T04:03:35;-2.50;99.90
73586;DHT22;61865;50.232;18.614;2023-03-19T04:05:59;-2.40;99.90
73586;DHT22;61865;50.232;18.614;2023-03-19T04:08:21;-2.20;99.90
73586;DHT22;61865;50.232;18.614;2023-03-19T04:10:44;-2.00;99.90
73586;DHT22;61865;50.232;18.614;2023-03-19T04:13:06;-2.00;99.90
73586;DHT22;61865;50.232;18.614;2023-03-19T04:15:27;-1.80;99.90
73586;DHT22;61865;50.232;18.614;2023-03-19T04:17:50;-1.70;99.90
73586;DHT22;61865;50.232;18.614;2023-03-19T04:20:12;-1.70;99.90
73586;DHT22;61865;50.232;18.614;2023-03-19T04:22:37;-1.70;99.90
73586;DHT22;61865;50.232;18.614;2023-03-19T04:24:59;-1.80;99.90
73586;DHT22;61865;50.232;18.614;2023-03-19T04:27:21;-1.90;99.90
73586;DHT22;61865;50.232;18.614;2023-03-19T04:29:43;-2.10;99.90
73586;DHT22;61865;50.232;18.614;2023-03-19T04:32:05;-2.00;99.90
73586;DHT22;61865;50.232;18.614;2023-03-19T04:34:27;-1.80;99.90
73586;DHT22;61865;50.232;18.614;2023-03-19T04:36:49;-1.60;99.90
73586;DHT22;61865;50.232;18.614;2023-03-19T04:39:12;-1.50;99.90
73586;DHT22;61865;50.232;18.614;2023-03-19T04:41:34;-1.40;99.90
73586;DHT22;61865;50.232;18.614;2023-03-19T04:43:57;-1.40;99.90
73586;DHT22;61865;50.232;18.614;2023-03-19T04:46:19;-1.30;99.90
73586;DHT22;61865;50.232;18.614;2023-03-19T04:48:41;-1.20;99.90
73586;DHT22;61865;50.232;18.614;2023-03-19T04:51:03;-1.20;99.90
73586;DHT22;61865;50.232;18.614;2023-03-19T04:53:28;-1.00;99.90
73586;DHT22;61865;50.232;18.614;2023-03-19T04:55:51;-0.90;99.90
73586;DHT22;61865;50.232;18.614;2023-03-19T04:58:13;-0.90;99.90
73586;DHT22;61865;50.232;18.614;2023-03-19T05:00:36;-1.10;99.90
73586;DHT22;61865;50.232;18.614;2023-03-19T05:02:57;-1.40;99.90
73586;DHT22;61865;50.232;18.614;2023-03-19T05:05:19;-1.60;99.90
73586;DHT22;61865;50.232;18.614;2023-03-19T05:07:41;-1.80;99.90
73586;DHT22;61865;50.232;18.614;2023-03-19T05:10:04;-1.80;99.90
73586;DHT22;61865;50.232;18.614;2023-03-19T05:12:28;-1.70;99.90
73586;DHT22;61865;50.232;18.614;2023-03-19T05:14:50;-1.60;99.90
73586;DHT22;61865;50.232;18.614;2023-03-19T05:17:12;-1.40;99.90
73586;DHT22;61865;50.232;18.614;2023-03-19T05:19:35;-1.20;99.90
73586;DHT22;61865;50.232;18.614;2023-03-19T05:21:57;-1.10;99.90
73586;DHT22;61865;50.232;18.614;2023-03-19T05:24:19;-1.20;99.90
73586;DHT22;61865;50.232;18.614;2023-03-19T05:26:41;-1.20;99.90
73586;DHT22;61865;50.232;18.614;2023-03-19T05:29:05;-1.00;99.90
73586;DHT22;61865;50.232;18.614;2023-03-19T05:31:30;-0.90;99.90
73586;DHT22;61865;50.232;18.614;2023-03-19T05:33:52;-0.70;99.90
73586;DHT22;61865;50.232;18.614;2023-03-19T05:36:14;-0.60;99.90
73586;DHT22;61865;50.232;18.614;2023-03-19T05:38:36;-0.50;99.90
73586;DHT22;61865;50.232;18.614;2023-03-19T05:41:03;-0.40;99.90
73586;DHT22;61865;50.232;18.614;2023-03-19T05:43:27;-0.40;99.90
73586;DHT22;61865;50.232;18.614;2023-03-19T05:45:51;-0.30;99.90
73586;DHT22;61865;50.232;18.614;2023-03-19T05:48:13;-0.30;99.90
73586;DHT22;61865;50.232;18.614;2023-03-19T05:50:36;-0.20;99.90
73586;DHT22;61865;50.232;18.614;2023-03-19T05:52:59;0.00;99.90
73586;DHT22;61865;50.232;18.614;2023-03-19T05:55:25;0.10;99.90
73586;DHT22;61865;50.232;18.614;2023-03-19T05:57:47;0.20;99.90
73586;DHT22;61865;50.232;18.614;2023-03-19T06:00:10;0.30;99.90
73586;DHT22;61865;50.232;18.614;2023-03-19T06:02:34;0.40;99.90
73586;DHT22;61865;50.232;18.614;2023-03-19T06:04:56;0.50;99.90
73586;DHT22;61865;50.232;18.614;2023-03-19T06:07:21;0.60;99.90
73586;DHT22;61865;50.232;18.614;2023-03-19T06:09:43;0.80;99.90
73586;DHT22;61865;50.232;18.614;2023-03-19T06:12:05;0.90;99.90
73586;DHT22;61865;50.232;18.614;2023-03-19T06:14:27;1.10;99.90
73586;DHT22;61865;50.232;18.614;2023-03-19T06:16:49;1.20;99.90
73586;DHT22;61865;50.232;18.614;2023-03-19T06:19:12;1.40;99.90
73586;DHT22;61865;50.232;18.614;2023-03-19T06:21:35;1.60;99.90
73586;DHT22;61865;50.232;18.614;2023-03-19T06:23:57;1.90;99.90
73586;DHT22;61865;50.232;18.614;2023-03-19T06:26:19;2.10;99.90
73586;DHT22;61865;50.232;18.614;2023-03-19T06:28:41;2.40;99.90
73586;DHT22;61865;50.232;18.614;2023-03-19T06:31:03;2.60;99.90
73586;DHT22;61865;50.232;18.614;2023-03-19T06:33:25;2.90;99.90
73586;DHT22;61865;50.232;18.614;2023-03-19T06:35:53;3.10;99.90
73586;DHT22;61865;50.232;18.614;2023-03-19T06:38:15;3.40;99.90
73586;DHT22;61865;50.232;18.614;2023-03-19T06:40:37;3.60;99.90
73586;DHT22;61865;50.232;18.614;2023-03-19T06:42:59;3.80;99.90
73586;DHT22;61865;50.232;18.614;2023-03-19T06:45:21;4.10;99.90
73586;DHT22;61865;50.232;18.614;2023-03-19T06:47:43;4.30;99.90
73586;DHT22;61865;50.232;18.614;2023-03-19T06:50:07;4.50;99.90
73586;DHT22;61865;50.232;18.614;2023-03-19T06:52:30;4.60;99.90
73586;DHT22;61865;50.232;18.614;2023-03-19T06:54:52;4.70;99.90
73586;DHT22;61865;50.232;18.614;2023-03-19T06:57:14;4.90;99.90
73586;DHT22;61865;50.232;18.614;2023-03-19T06:59:36;4.90;99.90
73586;DHT22;61865;50.232;18.614;2023-03-19T07:01:58;5.10;99.90
73586;DHT22;61865;50.232;18.614;2023-03-19T07:04:20;5.30;99.90
73586;DHT22;61865;50.232;18.614;2023-03-19T07:06:42;5.40;99.90
73586;DHT22;61865;50.232;18.614;2023-03-19T07:09:05;5.50;99.90
73586;DHT22;61865;50.232;18.614;2023-03-19T07:11:27;5.60;99.90
73586;DHT22;61865;50.232;18.614;2023-03-19T07:13:49;5.70;99.90
73586;DHT22;61865;50.232;18.614;2023-03-19T07:16:11;5.70;99.90
73586;DHT22;61865;50.232;18.614;2023-03-19T07:18:33;5.80;99.90
73586;DHT22;61865;50.232;18.614;2023-03-19T07:20:55;5.80;99.90
73586;DHT22;61865;50.232;18.614;2023-03-19T07:23:17;6.00;99.90
73586;DHT22;61865;50.232;18.614;2023-03-19T07:25:40;6.10;99.90
73586;DHT22;61865;50.232;18.614;2023-03-19T07:28:03;6.30;99.90
73586;DHT22;61865;50.232;18.614;2023-03-19T07:30:25;6.50;99.90
73586;DHT22;61865;50.232;18.614;2023-03-19T07:32:46;6.60;99.90
73586;DHT22;61865;50.232;18.614;2023-03-19T07:35:09;6.70;99.90
73586;DHT22;61865;50.232;18.614;2023-03-19T07:37:31;6.90;99.90
73586;DHT22;61865;50.232;18.614;2023-03-19T07:39:53;7.00;99.90
73586;DHT22;61865;50.232;18.614;2023-03-19T07:42:16;7.10;99.90
73586;DHT22;61865;50.232;18.614;2023-03-19T07:44:38;7.20;99.90
73586;DHT22;61865;50.232;18.614;2023-03-19T07:47:00;7.30;99.90
73586;DHT22;61865;50.232;18.614;2023-03-19T07:49:22;7.40;99.90
73586;DHT22;61865;50.232;18.614;2023-03-19T07:51:44;7.50;99.90
73586;DHT22;61865;50.232;18.614;2023-03-19T07:54:06;7.60;99.90
73586;DHT22;61865;50.232;18.614;2023-03-19T07:56:27;7.80;99.90
73586;DHT22;61865;50.232;18.614;2023-03-19T07:58:51;8.00;99.90
73586;DHT22;61865;50.232;18.614;2023-03-19T08:01:13;8.20;99.90
73586;DHT22;61865;50.232;18.614;2023-03-19T08:03:35;8.30;99.90
73586;DHT22;61865;50.232;18.614;2023-03-19T08:05:58;8.50;99.90
73586;DHT22;61865;50.232;18.614;2023-03-19T08:08:19;8.60;99.90
73586;DHT22;61865;50.232;18.614;2023-03-19T08:10:44;8.70;99.90
73586;DHT22;61865;50.232;18.614;2023-03-19T08:13:06;8.80;99.90
73586;DHT22;61865;50.232;18.614;2023-03-19T08:15:30;8.90;99.90
73586;DHT22;61865;50.232;18.614;2023-03-19T08:17:57;9.00;99.90
73586;DHT22;61865;50.232;18.614;2023-03-19T08:20:19;9.20;99.90
73586;DHT22;61865;50.232;18.614;2023-03-19T08:22:48;9.30;99.40
73586;DHT22;61865;50.232;18.614;2023-03-19T08:25:12;9.40;93.90
73586;DHT22;61865;50.232;18.614;2023-03-19T08:27:35;9.50;91.70
73586;DHT22;61865;50.232;18.614;2023-03-19T08:29:57;9.60;92.40
73586;DHT22;61865;50.232;18.614;2023-03-19T08:32:20;9.70;90.30
73586;DHT22;61865;50.232;18.614;2023-03-19T08:34:43;9.80;84.20
73586;DHT22;61865;50.232;18.614;2023-03-19T08:37:05;9.90;87.00
73586;DHT22;61865;50.232;18.614;2023-03-19T08:39:27;10.00;87.30
73586;DHT22;61865;50.232;18.614;2023-03-19T08:41:48;10.10;83.80
73586;DHT22;61865;50.232;18.614;2023-03-19T08:44:10;10.20;81.20
73586;DHT22;61865;50.232;18.614;2023-03-19T08:46:32;10.40;73.50
73586;DHT22;61865;50.232;18.614;2023-03-19T08:48:56;10.60;70.00
73586;DHT22;61865;50.232;18.614;2023-03-19T08:51:18;10.80;66.80
73586;DHT22;61865;50.232;18.614;2023-03-19T08:53:40;11.00;66.70
73586;DHT22;61865;50.232;18.614;2023-03-19T08:56:04;11.20;63.20
73586;DHT22;61865;50.232;18.614;2023-03-19T08:58:27;11.50;59.90
73586;DHT22;61865;50.232;18.614;2023-03-19T09:00:50;11.60;57.80
73586;DHT22;61865;50.232;18.614;2023-03-19T09:03:15;11.60;59.20
73586;DHT22;61865;50.232;18.614;2023-03-19T09:05:38;11.80;59.80
73586;DHT22;61865;50.232;18.614;2023-03-19T09:08:00;11.90;59.30
73586;DHT22;61865;50.232;18.614;2023-03-19T09:10:22;12.10;56.80
73586;DHT22;61865;50.232;18.614;2023-03-19T09:12:44;12.20;56.00
73586;DHT22;61865;50.232;18.614;2023-03-19T09:15:06;12.30;56.40
73586;DHT22;61865;50.232;18.614;2023-03-19T09:17:29;12.50;55.80
73586;DHT22;61865;50.232;18.614;2023-03-19T09:19:51;12.70;55.20
73586;DHT22;61865;50.232;18.614;2023-03-19T09:22:14;12.80;55.40
73586;DHT22;61865;50.232;18.614;2023-03-19T09:24:36;12.80;53.60
73586;DHT22;61865;50.232;18.614;2023-03-19T09:26:58;12.60;53.70
73586;DHT22;61865;50.232;18.614;2023-03-19T09:29:20;12.60;54.20
73586;DHT22;61865;50.232;18.614;2023-03-19T09:31:42;12.70;54.00
73586;DHT22;61865;50.232;18.614;2023-03-19T09:34:05;12.80;53.60
73586;DHT22;61865;50.232;18.614;2023-03-19T09:36:28;12.90;53.10
73586;DHT22;61865;50.232;18.614;2023-03-19T09:38:51;12.90;52.70
73586;DHT22;61865;50.232;18.614;2023-03-19T09:41:22;13.00;52.60
73586;DHT22;61865;50.232;18.614;2023-03-19T09:43:58;13.10;52.70
73586;DHT22;61865;50.232;18.614;2023-03-19T09:46:22;13.40;52.40
73586;DHT22;61865;50.232;18.614;2023-03-19T09:48:47;13.50;50.90
73586;DHT22;61865;50.232;18.614;2023-03-19T09:51:16;13.70;50.20
73586;DHT22;61865;50.232;18.614;2023-03-19T09:53:43;13.90;49.80
73586;DHT22;61865;50.232;18.614;2023-03-19T09:56:13;14.10;49.80
73586;DHT22;61865;50.232;18.614;2023-03-19T09:58:36;14.30;48.10
73586;DHT22;61865;50.232;18.614;2023-03-19T10:01:00;14.30;48.40
73586;DHT22;61865;50.232;18.614;2023-03-19T10:03:44;14.40;48.00
73586;DHT22;61865;50.232;18.614;2023-03-19T10:06:24;14.60;47.30
73586;DHT22;61865;50.232;18.614;2023-03-19T10:08:59;14.60;47.70
73586;DHT22;61865;50.232;18.614;2023-03-19T10:11:38;14.80;46.20
73586;DHT22;61865;50.232;18.614;2023-03-19T10:16:51;14.90;46.90
73586;DHT22;61865;50.232;18.614;2023-03-19T10:19:18;15.10;46.70
73586;DHT22;61865;50.232;18.614;2023-03-19T10:21:45;15.00;46.10
73586;DHT22;61865;50.232;18.614;2023-03-19T10:24:11;15.00;46.40
73586;DHT22;61865;50.232;18.614;2023-03-19T10:26:36;15.10;46.00
73586;DHT22;61865;50.232;18.614;2023-03-19T10:29:03;15.20;45.90
73586;DHT22;61865;50.232;18.614;2023-03-19T10:31:27;15.20;45.90
73586;DHT22;61865;50.232;18.614;2023-03-19T10:33:56;15.10;45.10
73586;DHT22;61865;50.232;18.614;2023-03-19T10:36:20;15.20;45.90
73586;DHT22;61865;50.232;18.614;2023-03-19T10:38:47;15.20;45.10
73586;DHT22;61865;50.232;18.614;2023-03-19T10:41:20;15.10;45.30
73586;DHT22;61865;50.232;18.614;2023-03-19T10:43:50;15.00;45.30
73586;DHT22;61865;50.232;18.614;2023-03-19T10:46:13;15.00;45.80
73586;DHT22;61865;50.232;18.614;2023-03-19T10:48:42;15.10;45.10
73586;DHT22;61865;50.232;18.614;2023-03-19T10:51:04;15.10;46.20
73586;DHT22;61865;50.232;18.614;2023-03-19T10:53:31;15.10;45.80
73586;DHT22;61865;50.232;18.614;2023-03-19T10:55:55;15.30;45.70
73586;DHT22;61865;50.232;18.614;2023-03-19T10:58:20;15.10;46.10
73586;DHT22;61865;50.232;18.614;2023-03-19T11:00:47;15.20;45.60
73586;DHT22;61865;50.232;18.614;2023-03-19T11:03:28;15.30;44.50
73586;DHT22;61865;50.232;18.614;2023-03-19T11:06:03;15.40;44.40
73586;DHT22;61865;50.232;18.614;2023-03-19T11:08:25;15.50;44.60
73586;DHT22;61865;50.232;18.614;2023-03-19T11:10:48;15.50;44.80
73586;DHT22;61865;50.232;18.614;2023-03-19T11:13:20;15.70;44.10
73586;DHT22;61865;50.232;18.614;2023-03-19T11:15:47;15.70;43.10
73586;DHT22;61865;50.232;18.614;2023-03-19T11:18:17;15.80;43.50
73586;DHT22;61865;50.232;18.614;2023-03-19T11:20:40;15.90;44.30
73586;DHT22;61865;50.232;18.614;2023-03-19T11:23:05;15.90;43.60
73586;DHT22;61865;50.232;18.614;2023-03-19T11:25:30;16.00;42.50
73586;DHT22;61865;50.232;18.614;2023-03-19T11:27:59;16.00;42.90
73586;DHT22;61865;50.232;18.614;2023-03-19T11:30:23;16.00;42.70
73586;DHT22;61865;50.232;18.614;2023-03-19T11:33:05;16.10;42.90
73586;DHT22;61865;50.232;18.614;2023-03-19T11:35:31;16.10;43.20
73586;DHT22;61865;50.232;18.614;2023-03-19T11:37:56;16.20;43.70
73586;DHT22;61865;50.232;18.614;2023-03-19T11:40:26;16.30;42.20
73586;DHT22;61865;50.232;18.614;2023-03-19T11:43:03;16.40;41.90
73586;DHT22;61865;50.232;18.614;2023-03-19T11:45:31;16.40;41.60
73586;DHT22;61865;50.232;18.614;2023-03-19T11:48:02;16.30;42.30
73586;DHT22;61865;50.232;18.614;2023-03-19T11:50:34;16.30;41.90
73586;DHT22;61865;50.232;18.614;2023-03-19T11:53:05;16.30;41.70
73586;DHT22;61865;50.232;18.614;2023-03-19T11:55:35;16.30;41.20
73586;DHT22;61865;50.232;18.614;2023-03-19T11:58:14;16.30;42.50
73586;DHT22;61865;50.232;18.614;2023-03-19T12:00:43;16.50;41.30
73586;DHT22;61865;50.232;18.614;2023-03-19T12:03:41;16.60;41.20
73586;DHT22;61865;50.232;18.614;2023-03-19T12:06:12;16.60;41.50
73586;DHT22;61865;50.232;18.614;2023-03-19T12:08:39;16.40;42.00
73586;DHT22;61865;50.232;18.614;2023-03-19T12:11:16;16.30;40.50
73586;DHT22;61865;50.232;18.614;2023-03-19T12:14:02;16.30;41.30
73586;DHT22;61865;50.232;18.614;2023-03-19T12:16:32;16.40;40.90
73586;DHT22;61865;50.232;18.614;2023-03-19T12:22:03;16.10;42.70
73586;DHT22;61865;50.232;18.614;2023-03-19T12:24:33;16.30;40.70
73586;DHT22;61865;50.232;18.614;2023-03-19T12:27:07;16.50;41.00
73586;DHT22;61865;50.232;18.614;2023-03-19T12:29:42;16.70;41.10
73586;DHT22;61865;50.232;18.614;2023-03-19T12:32:15;16.90;39.60
73586;DHT22;61865;50.232;18.614;2023-03-19T12:34:45;17.10;40.70
73586;DHT22;61865;50.232;18.614;2023-03-19T12:37:16;17.30;40.00
73586;DHT22;61865;50.232;18.614;2023-03-19T12:39:47;17.20;39.60
73586;DHT22;61865;50.232;18.614;2023-03-19T12:42:14;17.10;39.50
73586;DHT22;61865;50.232;18.614;2023-03-19T12:44:38;17.10;40.40
73586;DHT22;61865;50.232;18.614;2023-03-19T12:47:03;17.10;39.60
73586;DHT22;61865;50.232;18.614;2023-03-19T12:49:30;17.10;40.00
73586;DHT22;61865;50.232;18.614;2023-03-19T12:51:59;17.10;38.70
73586;DHT22;61865;50.232;18.614;2023-03-19T12:54:26;17.20;39.30
73586;DHT22;61865;50.232;18.614;2023-03-19T12:56:53;17.30;38.80
73586;DHT22;61865;50.232;18.614;2023-03-19T12:59:23;17.20;38.70
73586;DHT22;61865;50.232;18.614;2023-03-19T13:01:49;17.10;39.60
73586;DHT22;61865;50.232;18.614;2023-03-19T13:04:15;17.30;40.20
73586;DHT22;61865;50.232;18.614;2023-03-19T13:06:43;17.40;39.80
73586;DHT22;61865;50.232;18.614;2023-03-19T13:09:13;17.20;39.40
73586;DHT22;61865;50.232;18.614;2023-03-19T13:11:43;17.10;40.30
73586;DHT22;61865;50.232;18.614;2023-03-19T13:14:13;17.00;40.60
73586;DHT22;61865;50.232;18.614;2023-03-19T13:16:38;16.80;39.00
73586;DHT22;61865;50.232;18.614;2023-03-19T13:19:05;16.80;39.60
73586;DHT22;61865;50.232;18.614;2023-03-19T13:21:33;16.80;39.60
73586;DHT22;61865;50.232;18.614;2023-03-19T13:24:03;16.60;39.30
73586;DHT22;61865;50.232;18.614;2023-03-19T13:26:31;16.60;40.40
73586;DHT22;61865;50.232;18.614;2023-03-19T13:28:59;16.70;39.80
73586;DHT22;61865;50.232;18.614;2023-03-19T13:31:23;16.90;39.40
73586;DHT22;61865;50.232;18.614;2023-03-19T13:33:51;16.90;40.10
73586;DHT22;61865;50.232;18.614;2023-03-19T13:36:14;16.90;40.30
73586;DHT22;61865;50.232;18.614;2023-03-19T13:38:39;16.90;39.40
73586;DHT22;61865;50.232;18.614;2023-03-19T13:41:01;16.90;38.80
73586;DHT22;61865;50.232;18.614;2023-03-19T13:43:52;16.90;38.30
73586;DHT22;61865;50.232;18.614;2023-03-19T13:46:44;16.80;38.60
73586;DHT22;61865;50.232;18.614;2023-03-19T13:49:24;16.70;39.40
73586;DHT22;61865;50.232;18.614;2023-03-19T13:51:47;16.70;38.70
73586;DHT22;61865;50.232;18.614;2023-03-19T13:54:15;16.60;39.00
73586;DHT22;61865;50.232;18.614;2023-03-19T13:57:01;16.60;38.80
73586;DHT22;61865;50.232;18.614;2023-03-19T13:59:27;16.60;39.20
73586;DHT22;61865;50.232;18.614;2023-03-19T14:01:50;16.50;39.20
73586;DHT22;61865;50.232;18.614;2023-03-19T14:04:17;16.50;39.20
73586;DHT22;61865;50.232;18.614;2023-03-19T14:06:42;16.60;39.70
73586;DHT22;61865;50.232;18.614;2023-03-19T14:09:26;16.60;39.80
73586;DHT22;61865;50.232;18.614;2023-03-19T14:11:49;16.70;39.30
73586;DHT22;61865;50.232;18.614;2023-03-19T14:14:12;16.80;39.90
73586;DHT22;61865;50.232;18.614;2023-03-19T14:16:41;16.90;40.30
73586;DHT22;61865;50.232;18.614;2023-03-19T14:19:10;17.00;38.10
73586;DHT22;61865;50.232;18.614;2023-03-19T14:21:38;17.20;39.30
73586;DHT22;61865;50.232;18.614;2023-03-19T14:24:28;17.30;37.60
73586;DHT22;61865;50.232;18.614;2023-03-19T14:26:56;17.40;38.20
73586;DHT22;61865;50.232;18.614;2023-03-19T14:29:19;17.30;38.50
73586;DHT22;61865;50.232;18.614;2023-03-19T14:31:48;17.30;38.20
73586;DHT22;61865;50.232;18.614;2023-03-19T14:34:18;17.30;37.20
73586;DHT22;61865;50.232;18.614;2023-03-19T14:36:44;17.30;37.80
73586;DHT22;61865;50.232;18.614;2023-03-19T14:39:15;17.40;37.90
73586;DHT22;61865;50.232;18.614;2023-03-19T14:41:42;17.40;38.30
73586;DHT22;61865;50.232;18.614;2023-03-19T14:44:38;17.30;37.10
73586;DHT22;61865;50.232;18.614;2023-03-19T14:47:23;17.20;36.30
73586;DHT22;61865;50.232;18.614;2023-03-19T14:50:03;17.20;36.50
73586;DHT22;61865;50.232;18.614;2023-03-19T14:52:30;17.20;37.00
73586;DHT22;61865;50.232;18.614;2023-03-19T14:54:54;17.20;36.70
73586;DHT22;61865;50.232;18.614;2023-03-19T14:57:20;17.20;36.70
73586;DHT22;61865;50.232;18.614;2023-03-19T14:59:43;17.20;36.90
73586;DHT22;61865;50.232;18.614;2023-03-19T15:02:11;17.20;37.90
73586;DHT22;61865;50.232;18.614;2023-03-19T15:04:43;17.10;36.90
73586;DHT22;61865;50.232;18.614;2023-03-19T15:07:16;16.90;37.00
73586;DHT22;61865;50.232;18.614;2023-03-19T15:09:39;16.70;37.50
73586;DHT22;61865;50.232;18.614;2023-03-19T15:12:29;16.70;37.50